This is the latest recevied weather packets stored in our database for station/object KC9VAF. If no packets are shown the sender has not sent any weather packets the latest 10 day(s).
| Time | Temp. | Humidity | Pressure | Rain* | Wind** | Luminosity | Snow |
|---|---|---|---|---|---|---|---|
| 1778270922 | 18.89° C | 35% | 1007.7 hPa | 0 mm | - | 613 W/m² | - |
| 1778270619 | 19.44° C | 33% | 1008 hPa | 0 mm | - | 630 W/m² | - |
| 1778270314 | 18.89° C | 33% | 1007.8 hPa | 0 mm | - | 624 W/m² | - |
| 1778270011 | 20° C | 28% | 1008 hPa | 0 mm | - | 655 W/m² | - |
| 1778269708 | 19.44° C | 26% | 1008.3 hPa | 0 mm | - | 662 W/m² | - |
| 1778269405 | 19.44° C | 24% | 1008.4 hPa | 0 mm | - | 665 W/m² | - |
| 1778269102 | 19.44° C | 27% | 1008.2 hPa | 0 mm | - | 643 W/m² | - |
| 1778268799 | 19.44° C | 26% | 1008.2 hPa | 0 mm | - | 645 W/m² | - |
| 1778268495 | 20° C | 26% | 1008.4 hPa | 0 mm | - | 652 W/m² | - |
| 1778268192 | 19.44° C | 26% | 1008.5 hPa | 0 mm | - | 666 W/m² | - |
| 1778267889 | 19.44° C | 28% | 1008.4 hPa | 0 mm | - | 677 W/m² | - |
| 1778267586 | 19.44° C | 29% | 1008.2 hPa | 0 mm | - | 677 W/m² | - |
| 1778267284 | 18.89° C | 27% | 1008.5 hPa | 0 mm | - | 662 W/m² | - |
| 1778266979 | 18.89° C | 30% | 1008.7 hPa | 0 mm | - | 632 W/m² | - |
| 1778266676 | 19.44° C | 27% | 1008.7 hPa | 0 mm | - | 659 W/m² | - |
| 1778266374 | 18.89° C | 30% | 1008.6 hPa | 0 mm | - | 651 W/m² | - |
| 1778266071 | 20° C | 26% | 1009 hPa | 0 mm | - | 623 W/m² | - |
| 1778265768 | 18.89° C | 29% | 1008.8 hPa | 0 mm | - | 629 W/m² | - |
| 1778265465 | 18.89° C | 33% | 1008.8 hPa | 0 mm | - | 659 W/m² | - |
| 1778265161 | 19.44° C | 28% | 1009.1 hPa | 0 mm | - | 673 W/m² | - |
| 1778264857 | 18.89° C | 30% | 1009.1 hPa | 0 mm | - | 650 W/m² | - |
| 1778264554 | 18.89° C | 29% | 1009.1 hPa | 0 mm | - | 681 W/m² | - |
| 1778264250 | 18.89° C | 27% | 1009.2 hPa | 0 mm | - | 683 W/m² | - |
| 1778263947 | 17.78° C | 27% | 1009.3 hPa | 0 mm | - | 691 W/m² | - |
| 1778263643 | 18.33° C | 26% | 1009.4 hPa | 0 mm | - | 643 W/m² | - |
* Rain latest hour (hover to see other rain measurements)
** Current wind speed in m/s (hover to see current wind gust speed)